Aérodrome :
LOGIN :

S'inscrire | Disclaimer

   EN    FR    IT 

 










Légende :    VFR   VFR Marginal   IFR   IFR Intensif   IFR Très Intensif
Visi : 
Plafond : 
>= 8 km
>= 3000ft
5 à 8 km
1000 à 3000 ft
1500m à 5 km
500 à 1000 ft
800 à 1500m
200 à 500 ft
< 800m
< 200 ft
Symboles :   Orages  Brouillard  Fortes neiges  Fortes précipitations  Vent > 20 kt
SIGMETs :   Divers  Orages  Givrage  Turbulence  Onde Orograph.  Cendres Volcan.







- Altitude de l'aérodrome : 2096 ft
- Code IATA : AUR
- Voir les cartes d'approche


LFLW - Aurillac

DERNIER METAR :
  • 261830Z AUTO 31007KT 9999 SCT048 BKN056 BKN076 16/10 Q1017

METARs EXPIRÉS :
  • 261800Z AUTO 32010KT 300V360 9999 BKN046 BKN058 BKN080 16/10 Q1017
  • 261730Z AUTO 32010KT 9999 FEW041 SCT074 BKN084 17/10 Q1017
  • 261700Z AUTO 32012KT 9999 FEW038 SCT090 18/09 Q1017 NOSIG
  • 261630Z AUTO 32009KT 300V360 CAVOK 18/11 Q1018 NOSIG
  • 261600Z AUTO 31010KT 9999 FEW025 OVC080 17/12 Q1018 TEMPO FEW018TCU BKN020

TAF TAF LFLW
Valide du 26 à 15h jusqu'au 27 à 00h UTC


261400Z 2615/2624 32010KT 9999 SCT022 BKN080
PROB40
TEMPO 2615/2617 32012G22KT FEW018TCU BKN020
BECMG 2617/2620 32005KT BKN035
TEMPO 2621/2624 OVC012
Pas de NOTAMs connus pour ce terrain.



MET'MAP, la Météo Aéronautique d'un coup d'oeil ! - Copyright ORBIFLY Décembre 2007 - Disclaimer

ORBIFLY MET'MAP TEAM :

Programmation & Développement : Alexandra Zaïnal
Conception & Développement : Baudouin d'Aumeries
Co-Programmation & Développement : Marc-Olivier Méhu
Soutien technique & logistique : Manuel Goepfert

Contact : metmap@orbifly.com




SOURCES & CREDITS :

   NOAA